createdAt,value
2019-01-17T00:00:36.383Z,2.01
2019-01-17T00:03:35.831Z,2.00
2019-01-17T00:06:19.131Z,1.97
2019-01-17T00:09:09.195Z,1.94
2019-01-17T00:12:02.523Z,1.88
2019-01-17T00:14:48.994Z,1.81
2019-01-17T00:17:39.223Z,1.74
2019-01-17T00:20:37.233Z,1.70
2019-01-17T00:23:33.418Z,1.70
2019-01-17T00:26:26.425Z,1.73
2019-01-17T00:29:33.562Z,1.75
2019-01-17T00:32:26.908Z,1.72
2019-01-17T00:35:19.844Z,1.72
2019-01-17T00:38:19.345Z,1.70
2019-01-17T00:41:05.906Z,1.72
2019-01-17T00:43:59.410Z,1.72
2019-01-17T00:46:48.467Z,1.73
2019-01-17T00:49:41.743Z,1.74
2019-01-17T00:52:35.060Z,1.75
2019-01-17T00:55:29.084Z,1.76
2019-01-17T00:58:37.795Z,1.78
2019-01-17T01:01:24.224Z,1.80
2019-01-17T01:04:12.041Z,1.81
2019-01-17T01:07:02.245Z,1.84
2019-01-17T01:09:50.597Z,1.86
2019-01-17T01:12:49.667Z,1.85
2019-01-17T01:15:34.122Z,1.84
2019-01-17T01:18:23.145Z,1.82
2019-01-17T01:21:12.587Z,1.81
2019-01-17T01:24:05.905Z,1.82
2019-01-17T01:27:11.274Z,1.82
2019-01-17T01:29:53.951Z,1.81
2019-01-17T01:32:47.181Z,1.83
2019-01-17T01:35:36.328Z,1.84
2019-01-17T01:38:19.045Z,1.83
2019-01-17T01:41:24.593Z,1.81
2019-01-17T01:44:17.490Z,1.80
2019-01-17T01:47:12.764Z,1.78
2019-01-17T01:50:03.100Z,1.75
2019-01-17T01:52:46.889Z,1.73
2019-01-17T01:55:18.125Z,1.72
2019-01-17T01:57:49.398Z,1.68
2019-01-17T02:00:20.703Z,1.67
2019-01-17T02:02:51.963Z,1.65
2019-01-17T02:05:24.893Z,1.65
2019-01-17T02:07:56.148Z,1.62
2019-01-17T02:10:27.570Z,1.61
2019-01-17T02:13:00.592Z,1.60
2019-01-17T02:15:31.869Z,1.58
2019-01-17T02:18:03.120Z,1.57
2019-01-17T02:20:34.563Z,1.58
2019-01-17T02:23:06.094Z,1.56
2019-01-17T02:25:37.456Z,1.56
2019-01-17T02:28:08.713Z,1.54
2019-01-17T02:30:40.069Z,1.51
2019-01-17T02:33:11.542Z,1.46
2019-01-17T02:35:42.875Z,1.43
2019-01-17T02:38:14.218Z,1.43
2019-01-17T02:40:45.559Z,1.43
2019-01-17T02:43:18.525Z,1.41
2019-01-17T02:45:49.796Z,1.40
2019-01-17T02:48:21.044Z,1.41
2019-01-17T02:50:52.375Z,1.40
2019-01-17T02:53:23.660Z,1.39
2019-01-17T02:55:55.091Z,1.40
2019-01-17T02:58:26.525Z,1.39
2019-01-17T03:00:57.849Z,1.40
2019-01-17T03:03:29.148Z,1.41
2019-01-17T03:06:00.497Z,1.42
2019-01-17T03:08:31.910Z,1.44
2019-01-17T03:11:03.179Z,1.46
2019-01-17T03:13:34.593Z,1.47
2019-01-17T03:16:05.879Z,1.47
2019-01-17T03:18:37.245Z,1.48
2019-01-17T03:21:08.725Z,1.47
2019-01-17T03:23:40.015Z,1.46
2019-01-17T03:26:11.351Z,1.44
2019-01-17T03:28:42.739Z,1.43
2019-01-17T03:31:14.072Z,1.40
2019-01-17T03:33:45.455Z,1.39
2019-01-17T03:36:16.696Z,1.38
2019-01-17T03:38:48.034Z,1.36
2019-01-17T03:41:19.415Z,1.35
2019-01-17T03:43:50.655Z,1.33
2019-01-17T03:46:21.891Z,1.30
2019-01-17T03:48:53.527Z,1.29
2019-01-17T03:51:24.754Z,1.29
2019-01-17T03:53:55.992Z,1.25
2019-01-17T03:56:28.926Z,1.21
2019-01-17T03:59:00.227Z,1.18
2019-01-17T04:01:31.583Z,1.16
2019-01-17T04:04:02.967Z,1.10
2019-01-17T04:06:34.269Z,1.02
2019-01-17T04:09:07.472Z,0.93
2019-01-17T04:11:38.823Z,0.87
2019-01-17T04:14:10.081Z,0.84
2019-01-17T04:16:41.422Z,0.82
2019-01-17T04:19:13.198Z,0.77
2019-01-17T04:21:44.556Z,0.58
2019-01-17T04:24:17.486Z,0.71
2019-01-17T04:26:48.729Z,0.70
2019-01-17T04:29:19.968Z,0.68
2019-01-17T04:31:51.239Z,0.66
2019-01-17T04:34:22.485Z,0.64
2019-01-17T04:36:53.828Z,0.56
2019-01-17T04:39:25.121Z,0.49
2019-01-17T04:41:56.509Z,0.46
2019-01-17T04:44:27.934Z,0.42
2019-01-17T04:46:59.253Z,0.37
2019-01-17T04:49:30.601Z,0.37
2019-01-17T04:52:01.995Z,0.36
2019-01-17T04:54:33.322Z,0.31
2019-01-17T04:57:04.655Z,0.30
2019-01-17T04:59:35.928Z,0.26
2019-01-17T05:02:07.272Z,0.22
2019-01-17T05:04:38.527Z,0.22
2019-01-17T05:07:09.965Z,0.23
2019-01-17T05:09:41.607Z,0.27
2019-01-17T05:12:14.635Z,0.30
2019-01-17T05:14:45.846Z,0.29
2019-01-17T05:17:17.242Z,0.28
2019-01-17T05:19:48.539Z,0.25
2019-01-17T05:22:21.381Z,0.20
2019-01-17T05:24:52.868Z,0.16
2019-01-17T05:27:24.234Z,0.13
2019-01-17T05:29:55.486Z,0.12
2019-01-17T05:32:26.914Z,0.04
2019-01-17T05:34:58.285Z,-0.06
2019-01-17T05:37:29.625Z,-0.08
2019-01-17T05:40:01.015Z,-0.14
2019-01-17T05:42:32.290Z,-0.16
2019-01-17T05:45:03.989Z,-0.16
2019-01-17T05:47:35.312Z,-0.19
2019-01-17T05:50:07.807Z,-0.22
2019-01-17T05:52:39.133Z,-0.21
2019-01-17T05:55:10.668Z,-0.20
2019-01-17T05:57:41.931Z,-0.18
2019-01-17T06:00:18.744Z,-0.18
2019-01-17T06:02:50.015Z,-0.19
2019-01-17T06:05:21.344Z,-0.21
2019-01-17T06:07:54.244Z,-0.25
2019-01-17T06:10:25.673Z,-0.29
2019-01-17T06:12:57.289Z,-0.31
2019-01-17T06:15:28.845Z,-0.29
2019-01-17T06:18:00.282Z,-0.30
2019-01-17T06:20:31.572Z,-0.32
2019-01-17T06:23:02.920Z,-0.33
2019-01-17T06:25:34.287Z,-0.32
2019-01-17T06:28:06.468Z,-0.31
2019-01-17T06:30:37.790Z,-0.30
2019-01-17T06:33:09.214Z,-0.30
2019-01-17T06:35:40.493Z,-0.32
2019-01-17T06:38:11.819Z,-0.30
2019-01-17T06:40:43.191Z,-0.35
2019-01-17T06:43:14.528Z,-0.35
2019-01-17T06:45:45.890Z,-0.33
2019-01-17T06:48:17.247Z,-0.26
2019-01-17T06:50:48.498Z,-0.12
2019-01-17T06:53:19.779Z,0.02
2019-01-17T06:55:51.246Z,0.18
2019-01-17T06:58:22.563Z,0.30
2019-01-17T07:00:53.847Z,0.37
2019-01-17T07:03:25.106Z,0.42
2019-01-17T07:05:56.372Z,0.52
2019-01-17T07:08:27.719Z,0.58
2019-01-17T07:10:59.120Z,0.61
2019-01-17T07:13:30.591Z,0.63
2019-01-17T07:16:01.967Z,0.65
2019-01-17T07:18:33.317Z,0.63
2019-01-17T07:21:04.715Z,0.60
2019-01-17T07:23:36.357Z,0.63
2019-01-17T07:26:07.624Z,0.70
2019-01-17T07:28:38.889Z,0.84
2019-01-17T07:31:10.212Z,1.03
2019-01-17T07:33:41.494Z,1.27
2019-01-17T07:36:12.855Z,1.37
2019-01-17T07:38:45.899Z,1.53
2019-01-17T07:41:17.203Z,1.68
2019-01-17T07:43:48.526Z,1.88
2019-01-17T07:46:19.844Z,2.04
2019-01-17T07:48:52.699Z,2.12
2019-01-17T07:51:23.952Z,2.25
2019-01-17T07:53:55.837Z,2.50
2019-01-17T07:56:27.394Z,2.61
2019-01-17T07:58:58.968Z,2.76
2019-01-17T08:01:30.256Z,2.83
2019-01-17T08:04:01.648Z,2.91
2019-01-17T08:06:33.019Z,3.05
2019-01-17T08:09:05.979Z,3.26
2019-01-17T08:11:37.279Z,3.40
2019-01-17T08:14:08.625Z,3.37
2019-01-17T08:16:40.027Z,3.41
2019-01-17T08:19:12.093Z,3.47
2019-01-17T08:21:43.388Z,3.16
2019-01-17T08:24:14.879Z,3.58
2019-01-17T08:26:46.232Z,3.60
2019-01-17T08:29:17.546Z,3.59
2019-01-17T08:31:48.894Z,3.70
2019-01-17T08:34:20.144Z,3.77
2019-01-17T08:36:51.388Z,3.81
2019-01-17T08:39:22.701Z,3.88
2019-01-17T08:41:54.094Z,3.89
2019-01-17T08:44:25.425Z,3.91
2019-01-17T08:46:56.834Z,3.92
2019-01-17T08:49:29.850Z,3.94
2019-01-17T08:52:01.104Z,4.05
2019-01-17T08:54:32.342Z,4.09
2019-01-17T08:57:03.716Z,4.13
2019-01-17T08:59:35.035Z,4.15
2019-01-17T09:02:06.408Z,4.16
2019-01-17T09:04:38.556Z,4.13
2019-01-17T09:07:10.110Z,4.08
2019-01-17T09:09:41.458Z,4.09
2019-01-17T09:12:13.174Z,4.07
2019-01-17T09:14:44.618Z,4.08
2019-01-17T09:17:15.910Z,4.13
2019-01-17T09:19:47.337Z,4.16
2019-01-17T09:22:18.748Z,4.21
2019-01-17T09:24:50.118Z,4.38
2019-01-17T09:27:22.304Z,4.53
2019-01-17T09:29:55.602Z,4.64
2019-01-17T09:32:27.949Z,4.71
2019-01-17T09:34:59.278Z,4.77
2019-01-17T09:37:30.600Z,4.83
2019-01-17T09:40:01.851Z,4.91
2019-01-17T09:42:33.208Z,4.98
2019-01-17T09:45:04.794Z,5.00
2019-01-17T09:47:36.141Z,5.09
2019-01-17T09:50:16.098Z,5.15
2019-01-17T09:52:47.350Z,5.17
2019-01-17T09:55:18.625Z,5.19
2019-01-17T09:57:49.913Z,5.25
2019-01-17T10:00:29.389Z,5.44
2019-01-17T10:03:00.789Z,5.61
2019-01-17T10:05:32.025Z,5.83
2019-01-17T10:08:03.288Z,6.01
2019-01-17T10:10:34.627Z,6.18
2019-01-17T10:13:06.139Z,6.33
2019-01-17T10:15:50.672Z,6.52
2019-01-17T10:19:18.243Z,6.72
2019-01-17T10:22:36.408Z,7.10
2019-01-17T10:25:45.712Z,7.10
2019-01-17T10:29:06.711Z,7.29
2019-01-17T10:32:27.259Z,7.40
2019-01-17T10:35:54.778Z,7.52
2019-01-17T10:39:07.133Z,7.69
2019-01-17T10:42:07.960Z,7.89
2019-01-17T10:44:47.794Z,8.12
2019-01-17T10:48:00.171Z,8.30
2019-01-17T10:51:04.702Z,8.46
2019-01-17T10:54:19.701Z,8.68
2019-01-17T10:57:20.771Z,8.70
2019-01-17T11:00:35.980Z,9.14
2019-01-17T11:03:37.481Z,9.14
2019-01-17T11:06:51.131Z,9.26
2019-01-17T11:09:30.896Z,9.30
2019-01-17T11:12:38.935Z,9.48
2019-01-17T11:16:06.753Z,9.48
2019-01-17T11:19:04.110Z,9.56
2019-01-17T11:22:33.645Z,9.65
2019-01-17T11:25:49.289Z,9.73
2019-01-17T11:29:01.396Z,9.89
2019-01-17T11:32:13.617Z,9.98
2019-01-17T11:35:49.033Z,10.00
2019-01-17T11:38:59.028Z,10.15
2019-01-17T11:42:03.042Z,10.15
2019-01-17T11:45:04.504Z,10.23
2019-01-17T11:48:19.926Z,10.24
2019-01-17T11:51:31.506Z,10.33
2019-01-17T11:54:25.874Z,10.38
2019-01-17T11:57:30.387Z,10.38
2019-01-17T12:00:14.743Z,10.35
2019-01-17T12:03:26.262Z,10.35
2019-01-17T12:05:57.496Z,10.67
2019-01-17T12:08:28.799Z,10.84
2019-01-17T12:11:00.258Z,10.99
2019-01-17T12:13:31.720Z,11.11
2019-01-17T12:16:03.068Z,11.04
2019-01-17T12:18:35.902Z,10.92
2019-01-17T12:21:07.323Z,10.76
2019-01-17T12:23:38.659Z,10.75
2019-01-17T12:26:09.981Z,10.88
2019-01-17T12:28:41.344Z,10.88
2019-01-17T12:31:12.692Z,10.95
2019-01-17T12:33:44.032Z,10.92
2019-01-17T12:36:15.393Z,10.92
2019-01-17T12:38:46.631Z,11.07
2019-01-17T12:41:17.964Z,11.02
2019-01-17T12:43:50.825Z,10.97
2019-01-17T12:46:22.084Z,11.09
2019-01-17T12:48:53.369Z,11.22
2019-01-17T12:51:24.695Z,11.16
2019-01-17T12:53:56.008Z,11.22
2019-01-17T12:56:27.242Z,11.18
2019-01-17T12:58:58.473Z,11.21
2019-01-17T13:01:31.406Z,11.14
2019-01-17T13:04:02.755Z,11.14
2019-01-17T13:06:33.998Z,11.14
2019-01-17T13:09:08.621Z,11.09
2019-01-17T13:11:39.927Z,11.07
2019-01-17T13:14:12.960Z,11.05
2019-01-17T13:16:44.271Z,11.05
2019-01-17T13:19:15.612Z,10.99
2019-01-17T13:21:46.958Z,10.89
2019-01-17T13:24:18.543Z,10.83
2019-01-17T13:26:49.916Z,10.87
2019-01-17T13:29:21.284Z,10.82
2019-01-17T13:31:52.531Z,10.82
2019-01-17T13:34:23.782Z,10.84
2019-01-17T13:36:56.357Z,10.85
2019-01-17T13:39:27.700Z,10.90
2019-01-17T13:41:59.141Z,10.83
2019-01-17T13:44:30.503Z,10.78
2019-01-17T13:47:01.831Z,10.73
2019-01-17T13:49:33.198Z,10.65
2019-01-17T13:52:04.754Z,10.67
2019-01-17T13:54:36.020Z,10.60
2019-01-17T13:57:07.830Z,10.55
2019-01-17T13:59:39.113Z,10.63
2019-01-17T14:02:10.342Z,10.50
2019-01-17T14:04:41.573Z,10.50
2019-01-17T14:07:12.814Z,10.46
2019-01-17T14:09:44.098Z,10.38
2019-01-17T14:12:15.529Z,10.37
2019-01-17T14:14:46.791Z,10.35
2019-01-17T14:17:18.504Z,10.32
2019-01-17T14:19:49.814Z,10.40
2019-01-17T14:22:21.143Z,10.33
2019-01-17T14:24:52.476Z,10.26
2019-01-17T14:27:23.779Z,10.22
2019-01-17T14:29:55.625Z,10.23
2019-01-17T14:32:26.993Z,10.14
2019-01-17T14:34:58.327Z,10.15
2019-01-17T14:37:29.716Z,10.07
2019-01-17T14:40:01.015Z,10.00
2019-01-17T14:42:32.356Z,9.97
2019-01-17T14:45:07.445Z,9.93
2019-01-17T14:47:38.789Z,9.83
2019-01-17T14:50:13.860Z,9.71
2019-01-17T14:52:45.131Z,9.62
2019-01-17T14:55:16.370Z,9.56
2019-01-17T14:57:47.719Z,9.47
2019-01-17T15:00:21.011Z,9.39
2019-01-17T15:02:52.263Z,9.32
2019-01-17T15:05:23.589Z,9.15
2019-01-17T15:07:54.928Z,8.98
2019-01-17T15:10:37.949Z,8.84
2019-01-17T15:13:09.334Z,8.70
2019-01-17T15:15:40.673Z,8.56
2019-01-17T15:18:12.022Z,8.44
2019-01-17T15:20:43.543Z,8.33
2019-01-17T15:23:16.447Z,8.11
2019-01-17T15:25:47.851Z,7.96
2019-01-17T15:28:19.214Z,7.85
2019-01-17T15:30:50.523Z,7.79
2019-01-17T15:33:21.844Z,7.69
2019-01-17T15:35:53.137Z,7.59
2019-01-17T15:38:24.487Z,7.47
2019-01-17T15:40:55.882Z,7.37
2019-01-17T15:43:27.189Z,7.20
2019-01-17T15:45:58.518Z,7.00
2019-01-17T15:48:30.047Z,6.79
2019-01-17T15:51:01.356Z,6.51
2019-01-17T15:53:32.681Z,6.37
2019-01-17T15:56:04.008Z,6.30
2019-01-17T15:58:35.279Z,6.20
2019-01-17T16:01:06.700Z,6.12
2019-01-17T16:03:38.024Z,6.10
2019-01-17T16:06:09.282Z,6.09
2019-01-17T16:08:40.552Z,6.04
2019-01-17T16:11:12.309Z,5.97
2019-01-17T16:13:43.664Z,5.80
2019-01-17T16:16:15.044Z,5.73
2019-01-17T16:18:46.349Z,5.66
2019-01-17T16:21:17.669Z,5.60
2019-01-17T16:23:48.932Z,5.55
2019-01-17T16:26:20.343Z,5.52
2019-01-17T16:28:54.578Z,5.48
2019-01-17T16:31:28.708Z,5.47
2019-01-17T16:34:00.144Z,5.38
2019-01-17T16:36:33.008Z,5.35
2019-01-17T16:39:07.710Z,5.04
2019-01-17T16:41:39.041Z,5.23
2019-01-17T16:44:10.395Z,5.17
2019-01-17T16:46:41.758Z,5.10
2019-01-17T16:49:13.120Z,5.03
2019-01-17T16:51:44.417Z,4.91
2019-01-17T16:54:15.792Z,4.79
2019-01-17T16:56:47.239Z,4.68
2019-01-17T16:59:18.511Z,4.60
2019-01-17T17:01:49.767Z,4.51
2019-01-17T17:04:21.079Z,4.47
2019-01-17T17:06:52.444Z,4.42
2019-01-17T17:09:23.773Z,4.35
2019-01-17T17:11:55.030Z,4.29
2019-01-17T17:14:26.296Z,4.25
2019-01-17T17:16:57.643Z,4.19
2019-01-17T17:19:30.594Z,4.08
2019-01-17T17:22:01.959Z,4.00
2019-01-17T17:24:33.219Z,3.88
2019-01-17T17:27:04.582Z,3.76
2019-01-17T17:29:36.116Z,3.69
2019-01-17T17:32:07.378Z,3.63
2019-01-17T17:34:38.714Z,3.53
2019-01-17T17:37:10.059Z,3.46
2019-01-17T17:39:41.327Z,3.40
2019-01-17T17:42:14.228Z,3.31
2019-01-17T17:44:45.517Z,3.38
2019-01-17T17:47:16.767Z,3.55
2019-01-17T17:49:48.241Z,3.69
2019-01-17T17:52:19.578Z,3.83
2019-01-17T17:54:50.934Z,3.99
2019-01-17T17:57:22.280Z,4.16
2019-01-17T17:59:53.677Z,4.28
2019-01-17T18:02:31.830Z,4.37
2019-01-17T18:05:05.592Z,4.47
2019-01-17T18:07:37.089Z,4.48
2019-01-17T18:10:11.987Z,4.49
2019-01-17T18:12:43.406Z,4.51
2019-01-17T18:15:15.341Z,4.52
2019-01-17T18:17:46.705Z,4.55
2019-01-17T18:20:18.282Z,4.70
2019-01-17T18:22:49.618Z,4.93
2019-01-17T18:25:20.960Z,5.08
2019-01-17T18:27:52.311Z,5.19
2019-01-17T18:30:23.798Z,5.29
2019-01-17T18:32:55.290Z,5.43
2019-01-17T18:35:26.581Z,5.60
2019-01-17T18:37:57.879Z,5.71
2019-01-17T18:40:29.302Z,5.72
2019-01-17T18:43:00.637Z,5.79
2019-01-17T18:45:31.979Z,5.86
2019-01-17T18:48:03.609Z,5.94
2019-01-17T18:50:35.233Z,6.05
2019-01-17T18:53:06.633Z,6.20
2019-01-17T18:55:37.896Z,6.22
2019-01-17T18:58:15.395Z,6.28
2019-01-17T19:00:42.226Z,6.30
2019-01-17T19:03:13.560Z,6.31
2019-01-17T19:05:44.824Z,6.56
2019-01-17T19:08:16.218Z,6.67
2019-01-17T19:10:47.622Z,6.77
2019-01-17T19:13:19.179Z,6.74
2019-01-17T19:15:50.674Z,6.77
2019-01-17T19:18:22.147Z,6.77
2019-01-17T19:20:53.404Z,6.76
2019-01-17T19:23:24.734Z,6.72
2019-01-17T19:25:56.076Z,6.74
2019-01-17T19:28:27.478Z,6.79
2019-01-17T19:30:59.259Z,6.71
2019-01-17T19:33:31.830Z,6.61
2019-01-17T19:36:03.204Z,6.52
2019-01-17T19:38:34.603Z,6.54
2019-01-17T19:41:07.700Z,6.47
2019-01-17T19:43:39.018Z,6.30
2019-01-17T19:46:10.469Z,6.25
2019-01-17T19:48:41.812Z,6.14
2019-01-17T19:51:13.264Z,6.03
2019-01-17T19:53:44.699Z,5.97
2019-01-17T19:56:15.956Z,5.98
2019-01-17T19:58:47.261Z,5.96
2019-01-17T20:01:18.557Z,5.86
2019-01-17T20:03:49.888Z,5.79
2019-01-17T20:06:21.341Z,5.72
2019-01-17T20:08:52.611Z,5.65
2019-01-17T20:11:23.856Z,5.68
2019-01-17T20:13:55.275Z,5.68
2019-01-17T20:16:26.515Z,5.63
2019-01-17T20:18:57.786Z,5.61
2019-01-17T20:21:29.211Z,5.54
2019-01-17T20:24:02.100Z,5.49
2019-01-17T20:26:33.382Z,5.47
2019-01-17T20:29:04.745Z,5.47
2019-01-17T20:31:36.180Z,5.43
2019-01-17T20:34:07.526Z,5.43
2019-01-17T20:36:38.903Z,5.42
2019-01-17T20:39:10.414Z,5.43
2019-01-17T20:41:41.795Z,5.46
2019-01-17T20:44:13.098Z,5.46
2019-01-17T20:46:44.505Z,5.45
2019-01-17T20:49:15.819Z,5.45
2019-01-17T20:51:47.064Z,5.44
2019-01-17T20:54:21.553Z,5.46
2019-01-17T20:56:53.114Z,5.46
2019-01-17T20:59:26.115Z,5.46
2019-01-17T21:02:19.536Z,5.46
2019-01-17T21:04:52.181Z,5.42
2019-01-17T21:07:23.573Z,5.40
2019-01-17T21:09:54.873Z,5.39
2019-01-17T21:12:26.137Z,5.36
2019-01-17T21:14:57.440Z,5.32
2019-01-17T21:17:30.055Z,5.32
2019-01-17T21:20:01.390Z,5.32
2019-01-17T21:22:32.743Z,5.29
2019-01-17T21:25:04.343Z,5.25
2019-01-17T21:27:35.896Z,5.24
2019-01-17T21:30:11.185Z,5.22
2019-01-17T21:32:42.438Z,5.21
2019-01-17T21:35:13.845Z,5.20
2019-01-17T21:37:46.009Z,5.22
2019-01-17T21:40:18.742Z,5.30
2019-01-17T21:42:50.069Z,5.30
2019-01-17T21:45:21.457Z,5.29
2019-01-17T21:47:52.686Z,5.43
2019-01-17T21:50:26.275Z,5.49
2019-01-17T21:52:57.560Z,5.54
2019-01-17T21:55:32.121Z,5.56
2019-01-17T21:58:03.419Z,5.67
2019-01-17T22:00:35.663Z,5.66
2019-01-17T22:03:07.914Z,5.69
2019-01-17T22:05:39.136Z,5.84
2019-01-17T22:08:10.447Z,5.85
2019-01-17T22:10:41.777Z,5.88
2019-01-17T22:13:13.244Z,5.88
2019-01-17T22:15:44.468Z,5.84
2019-01-17T22:18:17.454Z,6.02
2019-01-17T22:20:48.952Z,5.95
2019-01-17T22:23:20.347Z,5.88
2019-01-17T22:25:51.708Z,5.91
2019-01-17T22:28:22.947Z,5.88
2019-01-17T22:30:54.677Z,5.88
2019-01-17T22:33:26.088Z,5.86
2019-01-17T22:35:59.041Z,5.81
2019-01-17T22:38:30.496Z,5.80
2019-01-17T22:41:01.938Z,5.78
2019-01-17T22:43:44.003Z,5.76
2019-01-17T22:46:15.185Z,5.74
2019-01-17T22:48:46.644Z,5.71
2019-01-17T22:51:19.609Z,5.69
2019-01-17T22:53:50.876Z,5.72
2019-01-17T22:56:22.573Z,5.70
2019-01-17T22:58:53.835Z,5.70
2019-01-17T23:01:28.492Z,5.75
2019-01-17T23:04:02.350Z,5.75
2019-01-17T23:06:33.635Z,5.96
2019-01-17T23:09:07.981Z,6.01
2019-01-17T23:11:39.403Z,6.00
2019-01-17T23:14:10.707Z,6.03
2019-01-17T23:16:43.182Z,6.03
2019-01-17T23:19:14.600Z,6.15
2019-01-17T23:21:47.471Z,6.21
2019-01-17T23:24:18.991Z,6.17
2019-01-17T23:26:52.477Z,6.32
2019-01-17T23:29:23.925Z,6.20
2019-01-17T23:31:55.181Z,6.26
2019-01-17T23:34:26.537Z,6.23
2019-01-17T23:36:57.868Z,6.16
2019-01-17T23:39:36.169Z,6.30
2019-01-17T23:42:07.541Z,6.22
2019-01-17T23:44:38.819Z,6.19
2019-01-17T23:47:10.230Z,6.51
2019-01-17T23:49:42.595Z,6.54
2019-01-17T23:52:13.839Z,6.60
2019-01-17T23:54:45.179Z,6.60
2019-01-17T23:57:16.541Z,6.53
2019-01-17T23:59:47.920Z,6.50
